createdAt,value
2022-09-05T00:01:27.448Z,15.32
2022-09-05T00:04:03.472Z,15.23
2022-09-05T00:06:53.145Z,15.17
2022-09-05T00:09:27.850Z,15.18
2022-09-05T00:12:01.585Z,15.18
2022-09-05T00:15:14.572Z,15.18
2022-09-05T00:18:48.418Z,15.18
2022-09-05T00:24:27.840Z,15.14
2022-09-05T00:24:28.797Z,15.12
2022-09-05T00:26:37.449Z,15.07
2022-09-05T00:29:54.065Z,15.06
2022-09-05T00:32:16.231Z,15.04
2022-09-05T00:35:06.192Z,15.05
2022-09-05T00:37:38.111Z,15.04
2022-09-05T00:40:18.521Z,15.01
2022-09-05T00:42:49.051Z,14.98
2022-09-05T00:45:20.761Z,14.94
2022-09-05T00:47:50.027Z,14.88
2022-09-05T00:50:23.150Z,14.85
2022-09-05T00:53:06.710Z,14.89
2022-09-05T00:55:40.094Z,14.94
2022-09-05T00:58:34.914Z,14.93
2022-09-05T01:01:13.782Z,14.89
2022-09-05T01:03:56.235Z,14.89
2022-09-05T01:06:37.966Z,14.86
2022-09-05T01:09:31.354Z,14.85
2022-09-05T01:12:20.173Z,14.82
2022-09-05T01:15:14.673Z,14.79
2022-09-05T01:18:26.149Z,14.80
2022-09-05T01:21:10.515Z,14.81
2022-09-05T01:23:50.370Z,14.79
2022-09-05T01:26:34.639Z,14.76
2022-09-05T01:29:17.805Z,14.72
2022-09-05T01:31:56.839Z,14.69
2022-09-05T01:34:31.555Z,14.70
2022-09-05T01:37:04.760Z,14.70
2022-09-05T01:40:12.035Z,14.67
2022-09-05T01:42:36.950Z,14.64
2022-09-05T01:45:10.955Z,14.62
2022-09-05T01:47:50.242Z,14.60
2022-09-05T01:50:33.194Z,14.57
2022-09-05T01:53:26.248Z,14.55
2022-09-05T01:56:12.072Z,14.52
2022-09-05T01:58:55.085Z,14.51
2022-09-05T02:01:32.276Z,14.46
2022-09-05T02:04:13.304Z,14.43
2022-09-05T02:06:44.165Z,14.41
2022-09-05T02:09:22.588Z,14.38
2022-09-05T02:11:54.180Z,14.39
2022-09-05T02:14:33.997Z,14.39
2022-09-05T02:17:27.316Z,14.35
2022-09-05T02:20:09.674Z,14.33
2022-09-05T02:22:44.173Z,14.31
2022-09-05T02:25:18.131Z,14.31
2022-09-05T02:28:05.398Z,14.29
2022-09-05T02:30:36.957Z,14.26
2022-09-05T02:33:22.292Z,14.25
2022-09-05T02:35:54.355Z,14.21
2022-09-05T02:45:00.222Z,14.19
2022-09-05T02:45:08.929Z,14.19
2022-09-05T02:45:17.334Z,14.15
2022-09-05T02:47:06.522Z,14.12
2022-09-05T02:52:53.538Z,14.13
2022-09-05T02:57:37.624Z,14.07
2022-09-05T02:57:39.664Z,13.99
2022-09-05T02:58:47.837Z,13.98
2022-09-05T03:01:29.508Z,13.98
2022-09-05T03:04:07.763Z,14.01
2022-09-05T03:06:40.911Z,14.00
2022-09-05T03:09:20.793Z,14.00
2022-09-05T03:12:28.612Z,14.01
2022-09-05T03:15:22.750Z,13.99
2022-09-05T03:18:25.002Z,13.98
2022-09-05T03:21:30.818Z,13.99
2022-09-05T03:24:07.119Z,14.02
2022-09-05T03:26:50.982Z,14.03
2022-09-05T03:29:38.419Z,13.99
2022-09-05T03:32:48.936Z,13.95
2022-09-05T03:35:38.050Z,13.91
2022-09-05T03:38:33.524Z,13.88
2022-09-05T03:41:11.823Z,13.90
2022-09-05T03:44:06.892Z,13.84
2022-09-05T03:46:51.543Z,13.83
2022-09-05T03:53:55.023Z,13.84
2022-09-05T03:57:14.630Z,13.86
2022-09-05T03:57:19.610Z,13.79
2022-09-05T03:58:59.784Z,13.69
2022-09-05T04:04:03.663Z,13.54
2022-09-05T04:08:18.259Z,13.36
2022-09-05T04:08:23.961Z,13.31
2022-09-05T04:10:14.422Z,13.30
2022-09-05T04:12:51.375Z,13.24
2022-09-05T04:15:31.343Z,13.15
2022-09-05T04:18:04.021Z,13.12
2022-09-05T04:20:40.653Z,13.20
2022-09-05T04:23:18.902Z,13.25
2022-09-05T04:26:11.464Z,13.19
2022-09-05T04:28:53.786Z,13.23
2022-09-05T04:31:30.490Z,13.21
2022-09-05T04:34:09.255Z,13.22
2022-09-05T04:36:38.308Z,13.25
2022-09-05T04:39:25.396Z,13.28
2022-09-05T04:41:55.399Z,13.25
2022-09-05T04:44:27.199Z,13.25
2022-09-05T04:46:57.685Z,13.29
2022-09-05T04:49:27.248Z,13.26
2022-09-05T04:52:33.782Z,13.27
2022-09-05T04:55:04.070Z,13.26
2022-09-05T04:57:36.059Z,13.26
2022-09-05T05:06:05.654Z,13.28
2022-09-05T05:06:09.239Z,13.28
2022-09-05T05:06:11.745Z,13.31
2022-09-05T05:08:48.067Z,13.22
2022-09-05T05:17:56.571Z,13.15
2022-09-05T05:18:01.868Z,13.23
2022-09-05T05:18:15.463Z,13.19
2022-09-05T05:20:40.287Z,13.20
2022-09-05T05:22:57.108Z,13.22
2022-09-05T05:25:25.277Z,13.30
2022-09-05T05:28:08.647Z,13.39
2022-09-05T05:30:41.049Z,13.45
2022-09-05T05:33:23.851Z,13.52
2022-09-05T05:35:53.520Z,13.60
2022-09-05T05:38:28.671Z,13.69
2022-09-05T05:41:01.330Z,13.78
2022-09-05T05:43:35.185Z,13.86
2022-09-05T05:46:03.193Z,13.94
2022-09-05T05:48:38.204Z,13.99
2022-09-05T05:51:20.207Z,14.07
2022-09-05T05:54:06.245Z,14.22
2022-09-05T05:56:41.018Z,14.37
2022-09-05T05:59:30.977Z,14.54
2022-09-05T06:02:20.442Z,14.66
2022-09-05T06:05:16.295Z,14.75
2022-09-05T06:08:30.561Z,14.85
2022-09-05T06:14:58.126Z,14.93
2022-09-05T06:15:04.289Z,15.10
2022-09-05T06:17:58.431Z,15.28
2022-09-05T06:22:09.196Z,15.41
2022-09-05T06:24:08.215Z,15.54
2022-09-05T06:26:50.831Z,15.49
2022-09-05T06:29:34.268Z,15.54
2022-09-05T06:32:17.586Z,15.66
2022-09-05T06:35:00.005Z,15.75
2022-09-05T06:37:37.299Z,15.83
2022-09-05T06:40:13.886Z,16.00
2022-09-05T06:42:59.289Z,16.16
2022-09-05T06:46:01.069Z,16.31
2022-09-05T06:48:44.616Z,16.41
2022-09-05T06:51:33.872Z,16.41
2022-09-05T06:54:30.493Z,16.51
2022-09-05T06:57:12.661Z,16.64
2022-09-05T07:00:24.580Z,16.74
2022-09-05T07:03:06.555Z,16.93
2022-09-05T07:05:44.942Z,17.07
2022-09-05T07:08:36.328Z,17.19
2022-09-05T07:11:15.714Z,17.37
2022-09-05T07:13:54.105Z,17.58
2022-09-05T07:16:37.375Z,17.74
2022-09-05T07:19:17.932Z,17.95
2022-09-05T07:21:54.265Z,18.06
2022-09-05T07:24:53.998Z,18.14
2022-09-05T07:28:00.132Z,18.31
2022-09-05T07:30:25.164Z,18.41
2022-09-05T07:32:54.901Z,18.49
2022-09-05T07:35:26.779Z,18.63
2022-09-05T07:38:03.067Z,18.75
2022-09-05T07:40:31.495Z,18.88
2022-09-05T07:43:10.213Z,18.98
2022-09-05T07:45:46.401Z,19.05
2022-09-05T07:48:41.924Z,18.95
2022-09-05T07:54:51.708Z,18.91
2022-09-05T07:57:04.125Z,18.96
2022-09-05T08:04:17.659Z,19.69
2022-09-05T08:07:47.175Z,20.01
2022-09-05T08:51:59.636Z,22.35
2022-09-05T08:55:04.339Z,22.70
2022-09-05T08:58:27.042Z,22.77
2022-09-05T09:02:44.984Z,23.09
2022-09-05T09:07:51.557Z,23.20
2022-09-05T09:14:31.103Z,23.46
2022-09-05T09:17:06.912Z,23.45
2022-09-05T09:21:02.809Z,23.65
2022-09-05T09:23:58.323Z,24.25
2022-09-05T09:30:06.778Z,24.52
2022-09-05T09:33:07.643Z,24.66
2022-09-05T09:40:06.469Z,24.81
2022-09-05T09:46:19.152Z,25.00
2022-09-05T12:33:14.839Z,28.92
2022-09-05T12:41:35.630Z,28.24
2022-09-05T12:42:49.739Z,27.91
2022-09-05T12:49:35.244Z,28.05
2022-09-05T12:55:36.634Z,28.02
2022-09-05T13:03:01.432Z,28.20
2022-09-05T13:13:59.525Z,28.46
2022-09-05T13:23:50.542Z,28.55
2022-09-05T13:26:23.959Z,27.85
2022-09-05T13:38:10.928Z,28.00
2022-09-05T13:38:14.753Z,27.62
2022-09-05T13:40:40.770Z,27.63
2022-09-05T13:44:25.151Z,27.89
2022-09-05T13:47:01.040Z,28.34
2022-09-05T13:52:47.752Z,28.39
2022-09-05T13:55:23.725Z,28.56
2022-09-05T13:58:14.098Z,27.76
2022-09-05T14:01:15.190Z,27.50
2022-09-05T14:07:46.104Z,27.87
2022-09-05T14:11:07.577Z,27.71
2022-09-05T14:13:47.878Z,27.80
2022-09-05T14:16:43.470Z,27.45
2022-09-05T14:23:17.872Z,27.96
2022-09-05T14:25:52.764Z,28.01
2022-09-05T14:37:43.860Z,27.48
2022-09-05T14:37:46.137Z,28.01
2022-09-05T14:38:04.330Z,27.47
2022-09-05T14:41:11.665Z,27.40
2022-09-05T14:44:10.455Z,27.50
2022-09-05T14:47:32.464Z,26.97
2022-09-05T14:50:28.282Z,26.50
2022-09-05T14:56:51.618Z,26.97
2022-09-05T15:02:02.443Z,26.83
2022-09-05T15:02:58.756Z,26.90
2022-09-05T15:04:55.154Z,26.71
2022-09-05T15:07:23.592Z,26.58
2022-09-05T15:12:16.943Z,26.92
2022-09-05T15:13:00.623Z,27.19
2022-09-05T15:15:31.747Z,27.18
2022-09-05T15:18:04.563Z,27.09
2022-09-05T15:20:37.168Z,27.20
2022-09-05T15:23:16.460Z,27.34
2022-09-05T15:25:47.422Z,27.26
2022-09-05T15:28:20.721Z,27.42
2022-09-05T15:30:58.785Z,26.90
2022-09-05T15:33:29.319Z,26.92
2022-09-05T15:35:58.310Z,27.11
2022-09-05T15:38:33.612Z,27.23
2022-09-05T15:41:20.530Z,27.17
2022-09-05T15:43:52.419Z,27.07
2022-09-05T15:46:34.282Z,27.04
2022-09-05T15:49:05.400Z,26.80
2022-09-05T15:51:49.539Z,26.58
2022-09-05T15:54:38.630Z,26.38
2022-09-05T15:57:17.812Z,26.53
2022-09-05T15:59:49.148Z,26.50
2022-09-05T16:02:20.847Z,26.60
2022-09-05T16:10:26.878Z,26.59
2022-09-05T16:10:38.972Z,26.56
2022-09-05T16:11:09.954Z,26.52
2022-09-05T16:13:36.779Z,26.43
2022-09-05T16:23:16.999Z,26.42
2022-09-05T16:23:20.280Z,26.35
2022-09-05T16:23:30.079Z,26.15
2022-09-05T16:24:59.409Z,26.03
2022-09-05T16:27:46.065Z,26.08
2022-09-05T16:30:21.833Z,26.09
2022-09-05T16:32:51.933Z,26.20
2022-09-05T16:35:25.064Z,26.03
2022-09-05T16:37:57.718Z,25.80
2022-09-05T16:40:27.951Z,25.75
2022-09-05T16:42:59.247Z,25.67
2022-09-05T16:45:32.177Z,25.49
2022-09-05T16:48:14.215Z,25.32
2022-09-05T16:50:50.092Z,25.26
2022-09-05T16:53:32.319Z,25.19
2022-09-05T16:56:04.199Z,25.20
2022-09-05T16:58:35.053Z,25.19
2022-09-05T17:01:14.655Z,25.25
2022-09-05T17:03:52.189Z,25.26
2022-09-05T17:06:26.340Z,25.12
2022-09-05T17:09:12.161Z,25.12
2022-09-05T17:12:00.063Z,25.09
2022-09-05T17:14:33.639Z,24.78
2022-09-05T17:17:36.508Z,24.67
2022-09-05T17:20:05.837Z,24.66
2022-09-05T17:26:26.424Z,24.63
2022-09-05T17:29:30.254Z,24.56
2022-09-05T17:29:41.334Z,24.32
2022-09-05T17:31:56.926Z,24.17
2022-09-05T17:34:50.235Z,24.05
2022-09-05T17:37:41.457Z,23.93
2022-09-05T17:40:38.057Z,23.68
2022-09-05T17:43:07.718Z,23.63
2022-09-05T17:45:44.799Z,23.58
2022-09-05T17:48:14.949Z,23.53
2022-09-05T17:50:51.073Z,23.41
2022-09-05T17:53:26.648Z,23.32
2022-09-05T17:56:29.096Z,23.29
2022-09-05T17:59:08.071Z,23.20
2022-09-05T18:01:36.078Z,23.01
2022-09-05T18:04:17.750Z,22.84
2022-09-05T18:07:00.571Z,22.67
2022-09-05T18:10:01.462Z,22.53
2022-09-05T18:13:14.016Z,22.54
2022-09-05T18:16:02.399Z,22.54
2022-09-05T18:19:28.494Z,22.54
2022-09-05T18:21:25.724Z,22.52
2022-09-05T18:24:01.727Z,22.42
2022-09-05T18:26:39.142Z,22.34
2022-09-05T18:32:04.192Z,22.10
2022-09-05T18:34:43.782Z,21.97
2022-09-05T18:37:59.325Z,21.78
2022-09-05T18:40:39.947Z,21.65
2022-09-05T18:43:15.734Z,21.51
2022-09-05T18:45:53.071Z,21.38
2022-09-05T18:48:29.045Z,21.41
2022-09-05T18:51:13.337Z,21.38
2022-09-05T18:53:47.528Z,21.32
2022-09-05T18:56:21.219Z,21.35
2022-09-05T18:58:59.472Z,21.20
2022-09-05T19:01:40.895Z,21.06
2022-09-05T19:04:16.075Z,20.93
2022-09-05T19:07:07.948Z,20.87
2022-09-05T19:09:37.356Z,20.92
2022-09-05T19:12:35.124Z,20.89
2022-09-05T19:14:57.011Z,20.84
2022-09-05T19:17:27.493Z,20.79
2022-09-05T19:20:32.122Z,20.76
2022-09-05T19:23:10.470Z,20.78
2022-09-05T19:25:42.247Z,20.84
2022-09-05T19:36:46.050Z,20.89
2022-09-05T19:36:48.764Z,20.87
2022-09-05T19:36:55.713Z,20.80
2022-09-05T19:37:06.831Z,20.88
2022-09-05T19:43:24.171Z,20.79
2022-09-05T19:47:25.970Z,20.73
2022-09-05T19:47:37.387Z,20.72
2022-09-05T19:48:18.134Z,20.67
2022-09-05T19:50:47.269Z,20.55
2022-09-05T19:53:16.893Z,20.52
2022-09-05T19:55:45.134Z,20.48
2022-09-05T19:58:19.992Z,20.47
2022-09-05T20:01:00.467Z,20.45
2022-09-05T20:03:38.937Z,20.33
2022-09-05T20:06:29.004Z,20.29
2022-09-05T20:09:09.112Z,20.16
2022-09-05T20:11:45.088Z,20.14
2022-09-05T20:14:19.666Z,20.07
2022-09-05T20:16:48.164Z,19.99
2022-09-05T20:19:29.312Z,19.94
2022-09-05T20:21:59.319Z,19.92
2022-09-05T20:24:47.998Z,19.89
2022-09-05T20:27:16.983Z,19.84
2022-09-05T20:29:54.712Z,19.86
2022-09-05T20:32:38.770Z,19.80
2022-09-05T20:37:54.521Z,19.80
2022-09-05T20:43:22.128Z,19.74
2022-09-05T20:43:27.109Z,19.73
2022-09-05T20:43:56.585Z,19.67
2022-09-05T20:50:26.037Z,19.57
2022-09-05T20:54:07.603Z,19.55
2022-09-05T20:54:23.024Z,19.61
2022-09-05T20:55:37.828Z,19.56
2022-09-05T20:57:48.808Z,19.47
2022-09-05T21:00:18.108Z,19.40
2022-09-05T21:02:54.819Z,19.43
2022-09-05T21:05:27.711Z,19.28
2022-09-05T21:08:23.298Z,19.28
2022-09-05T21:10:55.652Z,19.19
2022-09-05T21:13:26.769Z,19.15
2022-09-05T21:15:55.127Z,19.06
2022-09-05T21:18:33.164Z,18.99
2022-09-05T21:21:02.768Z,18.95
2022-09-05T21:24:17.781Z,18.99
2022-09-05T21:26:49.920Z,18.98
2022-09-05T21:29:27.244Z,18.94
2022-09-05T21:32:01.627Z,18.90
2022-09-05T21:34:32.434Z,18.87
2022-09-05T21:37:06.579Z,18.82
2022-09-05T21:39:40.212Z,18.77
2022-09-05T21:43:37.495Z,18.69
2022-09-05T21:47:41.524Z,18.57
2022-09-05T21:47:53.125Z,18.53
2022-09-05T21:50:31.250Z,18.50
2022-09-05T21:53:25.334Z,18.42
2022-09-05T21:58:40.114Z,18.39
2022-09-05T21:59:27.092Z,18.36
2022-09-05T22:01:46.275Z,18.38
2022-09-05T22:04:16.753Z,18.29
2022-09-05T22:06:48.489Z,18.25
2022-09-05T22:09:18.779Z,18.25
2022-09-05T22:11:50.593Z,18.24
2022-09-05T22:14:18.626Z,18.23
2022-09-05T22:16:47.599Z,18.21
2022-09-05T22:19:22.673Z,18.17
2022-09-05T22:21:51.582Z,18.12
2022-09-05T22:24:19.885Z,18.12
2022-09-05T22:27:10.837Z,18.09
2022-09-05T22:29:40.712Z,18.08
2022-09-05T22:32:08.801Z,18.02
2022-09-05T22:34:36.518Z,17.95
2022-09-05T22:37:04.265Z,17.93
2022-09-05T22:39:37.447Z,17.91
2022-09-05T22:42:10.574Z,17.88
2022-09-05T22:44:39.861Z,17.84
2022-09-05T22:47:09.010Z,17.82
2022-09-05T22:49:37.412Z,17.78
2022-09-05T22:52:06.148Z,17.75
2022-09-05T22:54:33.912Z,17.73
2022-09-05T22:57:02.162Z,17.71
2022-09-05T22:59:31.370Z,17.67
2022-09-05T23:01:59.291Z,17.63
2022-09-05T23:04:27.107Z,17.62
2022-09-05T23:06:54.906Z,17.59
2022-09-05T23:09:22.846Z,17.57
2022-09-05T23:11:50.548Z,17.55
2022-09-05T23:14:18.248Z,17.52
2022-09-05T23:16:47.312Z,17.50
2022-09-05T23:19:15.037Z,17.48
2022-09-05T23:21:42.722Z,17.44
2022-09-05T23:24:10.443Z,17.36
2022-09-05T23:26:38.121Z,17.30
2022-09-05T23:29:05.884Z,17.26
2022-09-05T23:31:33.739Z,17.23
2022-09-05T23:34:02.850Z,17.21
2022-09-05T23:36:31.547Z,17.18
2022-09-05T23:38:59.709Z,17.15
2022-09-05T23:41:27.396Z,17.15
2022-09-05T23:43:55.224Z,17.10
2022-09-05T23:46:22.981Z,17.07
2022-09-05T23:48:50.901Z,17.04
2022-09-05T23:51:20.159Z,17.00
2022-09-05T23:53:47.863Z,16.92
2022-09-05T23:56:15.666Z,16.89
2022-09-05T23:58:43.429Z,16.87
